Latest Weather Observations for Point Wilson

IDV60801

Issued at 1:35 am EST Saturday 26 July 2014 (issued every 30 minutes, with the page automatically refreshed every 10 minutes)

About weather observations | Map of weather stations | Latest weather observations for VIC | Other Formats
Station Details ID: 087166 Name: POINT WILSON Lat: -38.10 Lon: 144.54 Height: 18.0 m
Data from the previous 72 hours. | See also: Recent months at Point Wilson
Date/Time
EST
Temp
°C
App
Temp
°C
Dew
Point
Rel
Hum
%
Delta-T
°C
Wind Press
QNH
hPa
Press
MSL
hPa
Rain
since 9 am
mm
Dir
 
Spd
km/h
Gust
km/h
Spd
kts
Gust
kts
26/01:30am - - - - - N 22 24 12 13 - - -
26/01:00am - - - - - N 19 20 10 11 - - -
26/12:30am - - - - - N 20 20 11 11 - - -
26/12:00am - - - - - N 20 22 11 12 - - -
 
Date/Time
EST
Temp
°C
App
Temp
°C
Dew
Point
Rel
Hum
%
Delta-T
°C
Wind Press
QNH
hPa
Press
MSL
hPa
Rain
since 9 am
mm
Dir
 
Spd
km/h
Gust
km/h
Spd
kts
Gust
kts
25/11:30pm - - - - - N 22 24 12 13 - - -
25/11:00pm - - - - - N 20 22 11 12 - - -
25/10:30pm - - - - - N 17 19 9 10 - - -
25/10:00pm - - - - - N 17 17 9 9 - - -
25/09:30pm - - - - - N 15 19 8 10 - - -
25/09:00pm - - - - - N 15 19 8 10 - - -
25/08:30pm - - - - - N 13 15 7 8 - - -
25/08:00pm - - - - - N 11 13 6 7 - - -
25/07:30pm - - - - - N 13 15 7 8 - - -
25/07:00pm - - - - - N 17 20 9 11 - - -
25/06:30pm - - - - - N 13 17 7 9 - - -
25/06:00pm - - - - - N 15 17 8 9 - - -
25/05:30pm - - - - - NNW 24 30 13 16 - - -
25/05:00pm - - - - - N 19 20 10 11 - - -
25/04:30pm - - - - - NNW 22 30 12 16 - - -
25/04:00pm - - - - - NNW 26 28 14 15 - - -
25/03:30pm - - - - - NNW 32 39 17 21 - - -
25/03:00pm - - - - - NNW 32 39 17 21 - - -
25/02:30pm - - - - - NNW 30 39 16 21 - - -
25/02:00pm - - - - - NNW 30 35 16 19 - - -
25/01:30pm - - - - - NW 20 26 11 14 - - -
25/01:00pm - - - - - NW 30 35 16 19 - - -
25/12:30pm - - - - - N 20 24 11 13 - - -
25/12:00pm - - - - - N 28 32 15 17 - - -
25/11:30am - - - - - NNW 26 37 14 20 - - -
25/11:00am - - - - - N 28 35 15 19 - - -
25/10:30am - - - - - N 30 35 16 19 - - -
25/10:00am - - - - - N 26 30 14 16 - - -
25/09:30am - - - - - N 24 28 13 15 - - -
25/09:00am - - - - - N 24 24 13 13 - - -
25/08:30am - - - - - NNE 20 26 11 14 - - -
25/08:00am - - - - - NNE 28 33 15 18 - - -
25/07:30am - - - - - NNE 30 32 16 17 - - -
25/07:00am - - - - - N 28 32 15 17 - - -
25/06:30am - - - - - NNE 26 30 14 16 - - -
25/06:00am - - - - - N 26 28 14 15 - - -
25/05:30am - - - - - N 22 28 12 15 - - -
25/05:00am - - - - - N 28 32 15 17 - - -
25/04:30am - - - - - NNE 22 24 12 13 - - -
25/04:00am - - - - - NNE 24 28 13 15 - - -
25/03:30am - - - - - NNE 22 26 12 14 - - -
25/03:00am - - - - - NE 22 24 12 13 - - -
25/02:30am - - - - - NNE 26 28 14 15 - - -
25/02:00am - - - - - NNE 30 33 16 18 - - -
25/01:30am - - - - - NNE 24 28 13 15 - - -
25/01:00am - - - - - NNE 26 30 14 16 - - -
25/12:30am - - - - - NNE 22 24 12 13 - - -
25/12:00am - - - - - NE 20 24 11 13 - - -
 
Date/Time
EST
Temp
°C
App
Temp
°C
Dew
Point
Rel
Hum
%
Delta-T
°C
Wind Press
QNH
hPa
Press
MSL
hPa
Rain
since 9 am
mm
Dir
 
Spd
km/h
Gust
km/h
Spd
kts
Gust
kts
24/11:30pm - - - - - ENE 20 24 11 13 - - -
24/11:00pm - - - - - ENE 26 30 14 16 - - -
24/10:30pm - - - - - ENE 24 33 13 18 - - -
24/10:00pm - - - - - ENE 28 32 15 17 - - -
24/09:30pm - - - - - ENE 26 28 14 15 - - -
24/09:00pm - - - - - ENE 24 28 13 15 - - -
24/08:30pm - - - - - ENE 19 22 10 12 - - -
24/08:00pm - - - - - ENE 20 22 11 12 - - -
24/07:30pm - - - - - ENE 15 17 8 9 - - -
24/07:00pm - - - - - ENE 20 24 11 13 - - -
24/06:30pm - - - - - ENE 26 30 14 16 - - -
24/06:00pm - - - - - NE 19 24 10 13 - - -
24/05:30pm - - - - - E 15 17 8 9 - - -
24/05:00pm - - - - - E 20 24 11 13 - - -
24/04:30pm - - - - - E 24 26 13 14 - - -
24/04:00pm - - - - - E 24 26 13 14 - - -
24/03:30pm - - - - - E 26 32 14 17 - - -
24/03:00pm - - - - - E 24 26 13 14 - - -
24/02:30pm - - - - - E 22 26 12 14 - - -
24/02:00pm - - - - - E 24 26 13 14 - - -
24/01:30pm - - - - - E 24 26 13 14 - - -
24/01:00pm - - - - - E 24 28 13 15 - - -
24/12:30pm - - - - - E 24 26 13 14 - - -
24/12:00pm - - - - - ENE 24 28 13 15 - - -
24/11:30am - - - - - ENE 26 28 14 15 - - -
24/11:00am - - - - - ENE 22 24 12 13 - - -
24/10:30am - - - - - E 22 26 12 14 - - -
24/10:00am - - - - - E 20 22 11 12 - - -
24/09:30am - - - - - ENE 20 22 11 12 - - -
24/09:00am - - - - - ENE 22 26 12 14 - - -
24/08:30am - - - - - ENE 19 20 10 11 - - -
24/08:00am - - - - - ENE 22 24 12 13 - - -
24/07:30am - - - - - NE 22 26 12 14 - - -
24/07:00am - - - - - ENE 22 28 12 15 - - -
24/06:30am - - - - - ENE 22 28 12 15 - - -
24/06:00am - - - - - ENE 24 28 13 15 - - -
24/05:30am - - - - - NE 17 20 9 11 - - -
24/05:00am - - - - - NE 19 20 10 11 - - -
24/04:30am - - - - - NE 19 22 10 12 - - -
24/04:00am - - - - - NE 19 20 10 11 - - -
24/03:30am - - - - - NNE 15 17 8 9 - - -
24/03:00am - - - - - NNE 19 22 10 12 - - -
24/02:30am - - - - - N 19 20 10 11 - - -
24/02:00am - - - - - N 15 17 8 9 - - -
24/01:30am - - - - - N 13 17 7 9 - - -
24/01:00am - - - - - NNE 15 17 8 9 - - -
24/12:30am - - - - - NNE 19 20 10 11 - - -
24/12:00am - - - - - NNE 19 20 10 11 - - -
 
Date/Time
EST
Temp
°C
App
Temp
°C
Dew
Point
Rel
Hum
%
Delta-T
°C
Wind Press
QNH
hPa
Press
MSL
hPa
Rain
since 9 am
mm
Dir
 
Spd
km/h
Gust
km/h
Spd
kts
Gust
kts
23/11:30pm - - - - - NNE 15 17 8 9 - - -
23/11:00pm - - - - - NNE 20 24 11 13 - - -
23/10:30pm - - - - - NNE 20 24 11 13 - - -
23/10:00pm - - - - - NE 20 26 11 14 - - -
23/09:30pm - - - - - NW 9 11 5 6 - - -
23/09:00pm - - - - - NNE 7 9 4 5 - - -
23/08:30pm - - - - - N 13 13 7 7 - - -
23/08:00pm - - - - - NE 22 24 12 13 - - -
23/07:30pm - - - - - NNE 20 24 11 13 - - -
23/07:00pm - - - - - NE 19 22 10 12 - - -
23/06:30pm - - - - - NE 22 26 12 14 - - -
23/06:00pm - - - - - ENE 19 22 10 12 - - -
23/05:30pm - - - - - ENE 17 19 9 10 - - -
23/05:00pm - - - - - E 15 17 8 9 - - -
23/04:30pm - - - - - E 9 11 5 6 - - -
23/04:00pm - - - - - E 9 13 5 7 - - -
23/03:30pm - - - - - E 7 9 4 5 - - -
23/03:00pm - - - - - ENE 6 7 3 4 - - -
23/02:30pm - - - - - CALM 0 0 0 0 - - -
23/02:00pm - - - - - CALM 0 0 0 0 - - -
23/01:30pm - - - - - NNE 2 7 1 4 - - -
23/01:00pm - - - - - NE 7 11 4 6 - - -
23/12:30pm - - - - - N 9 13 5 7 - - -
23/12:00pm - - - - - NNE 11 13 6 7 - - -
23/11:30am - - - - - NNE 9 13 5 7 - - -
23/11:00am - - - - - NNE 13 15 7 8 - - -
23/10:30am - - - - - NNE 15 20 8 11 - - -
23/10:00am - - - - - NNE 17 22 9 12 - - -
23/09:30am - - - - - NNE 17 20 9 11 - - -
23/09:00am - - - - - NE 19 24 10 13 - - -
23/08:30am - - - - - NE 15 20 8 11 - - -
23/08:00am - - - - - NE 15 20 8 11 - - -
23/07:30am - - - - - NE 19 20 10 11 - - -
23/07:00am - - - - - ENE 11 19 6 10 - - -
23/06:30am - - - - - ENE 9 15 5 8 - - -
23/06:00am - - - - - ENE 11 17 6 9 - - -
23/05:30am - - - - - NNE 13 19 7 10 - - -
23/05:00am - - - - - NNE 13 15 7 8 - - -
23/04:30am - - - - - NNE 11 13 6 7 - - -
23/04:00am - - - - - N 11 13 6 7 - - -
23/03:30am - - - - - N 9 13 5 7 - - -
23/03:00am - - - - - NNW 9 13 5 7 - - -
23/02:30am - - - - - N 9 11 5 6 - - -
23/02:00am - - - - - NW 7 9 4 5 - - -

Other Formats:

Comma delimited format used in spreadsheet applications
http://www.bom.gov.au/fwo/IDV60801/IDV60801.94847.axf

JavaScript Object Notation format (JSON) in row-major order
http://www.bom.gov.au/fwo/IDV60801/IDV60801.94847.json